sensor_id;sensor_type;location;lat;lon;timestamp;pressure;altitude;pressure_sealevel;temperature;humidity
77323;BME280;66384;51.052;9.850;2023-04-03T00:01:40;99746.55;;;3.90;58.78
77323;BME280;66384;51.052;9.850;2023-04-03T00:04:09;99747.50;;;3.91;59.05
77323;BME280;66384;51.052;9.850;2023-04-03T00:06:39;99747.63;;;3.90;59.08
77323;BME280;66384;51.052;9.850;2023-04-03T00:09:08;99746.85;;;3.89;58.94
77323;BME280;66384;51.052;9.850;2023-04-03T00:11:37;99749.42;;;3.89;58.94
77323;BME280;66384;51.052;9.850;2023-04-03T00:14:06;99749.80;;;3.90;58.84
77323;BME280;66384;51.052;9.850;2023-04-03T00:16:36;99753.14;;;3.89;59.02
77323;BME280;66384;51.052;9.850;2023-04-03T00:19:05;99755.76;;;3.87;58.97
77323;BME280;66384;51.052;9.850;2023-04-03T00:21:35;99755.48;;;3.86;58.82
77323;BME280;66384;51.052;9.850;2023-04-03T00:24:04;99755.20;;;3.84;58.85
77323;BME280;66384;51.052;9.850;2023-04-03T00:26:34;99752.61;;;3.81;58.89
77323;BME280;66384;51.052;9.850;2023-04-03T00:29:03;99756.73;;;3.79;58.93
77323;BME280;66384;51.052;9.850;2023-04-03T00:31:33;99755.05;;;3.77;58.79
77323;BME280;66384;51.052;9.850;2023-04-03T00:34:02;99757.24;;;3.75;58.99
77323;BME280;66384;51.052;9.850;2023-04-03T00:36:31;99756.95;;;3.72;59.03
77323;BME280;66384;51.052;9.850;2023-04-03T00:39:01;99758.29;;;3.70;59.21
77323;BME280;66384;51.052;9.850;2023-04-03T00:41:30;99760.91;;;3.69;58.99
77323;BME280;66384;51.052;9.850;2023-04-03T00:43:59;99762.52;;;3.67;59.17
77323;BME280;66384;51.052;9.850;2023-04-03T00:46:29;99761.40;;;3.63;59.34
77323;BME280;66384;51.052;9.850;2023-04-03T00:48:58;99762.02;;;3.63;59.50
77323;BME280;66384;51.052;9.850;2023-04-03T00:51:28;99765.91;;;3.62;59.88
77323;BME280;66384;51.052;9.850;2023-04-03T00:54:00;99765.41;;;3.62;59.92
77323;BME280;66384;51.052;9.850;2023-04-03T00:56:32;99763.97;;;3.61;59.97
77323;BME280;66384;51.052;9.850;2023-04-03T00:59:04;99766.52;;;3.61;60.01
77323;BME280;66384;51.052;9.850;2023-04-03T01:01:34;99762.10;;;3.61;60.13
77323;BME280;66384;51.052;9.850;2023-04-03T01:04:04;99764.30;;;3.63;60.38
77323;BME280;66384;51.052;9.850;2023-04-03T01:06:36;99762.88;;;3.65;60.41
77323;BME280;66384;51.052;9.850;2023-04-03T01:09:06;99766.21;;;3.67;60.36
77323;BME280;66384;51.052;9.850;2023-04-03T01:11:35;99762.98;;;3.67;60.54
77323;BME280;66384;51.052;9.850;2023-04-03T01:14:04;99763.24;;;3.68;60.67
77323;BME280;66384;51.052;9.850;2023-04-03T01:16:34;99762.34;;;3.70;60.79
77323;BME280;66384;51.052;9.850;2023-04-03T01:19:04;99763.60;;;3.73;60.82
77323;BME280;66384;51.052;9.850;2023-04-03T01:21:58;99768.96;;;3.74;60.97
77323;BME280;66384;51.052;9.850;2023-04-03T01:24:35;99768.06;;;3.73;60.92
77323;BME280;66384;51.052;9.850;2023-04-03T01:27:08;99768.90;;;3.73;60.85
77323;BME280;66384;51.052;9.850;2023-04-03T01:29:38;99765.96;;;3.73;61.29
77323;BME280;66384;51.052;9.850;2023-04-03T01:32:08;99768.96;;;3.72;61.52
77323;BME280;66384;51.052;9.850;2023-04-03T01:34:38;99770.73;;;3.71;61.35
77323;BME280;66384;51.052;9.850;2023-04-03T01:37:07;99772.69;;;3.69;61.10
77323;BME280;66384;51.052;9.850;2023-04-03T01:39:36;99772.35;;;3.69;60.89
77323;BME280;66384;51.052;9.850;2023-04-03T01:42:06;99771.51;;;3.70;60.36
77323;BME280;66384;51.052;9.850;2023-04-03T01:44:35;99776.86;;;3.68;60.23
77323;BME280;66384;51.052;9.850;2023-04-03T01:47:06;99780.07;;;3.68;60.19
77323;BME280;66384;51.052;9.850;2023-04-03T01:49:34;99779.17;;;3.64;59.94
77323;BME280;66384;51.052;9.850;2023-04-03T01:52:03;99782.73;;;3.62;59.98
77323;BME280;66384;51.052;9.850;2023-04-03T01:54:33;99785.31;;;3.60;59.90
77323;BME280;66384;51.052;9.850;2023-04-03T01:57:02;99786.20;;;3.58;59.92
77323;BME280;66384;51.052;9.850;2023-04-03T01:59:31;99784.48;;;3.58;59.72
77323;BME280;66384;51.052;9.850;2023-04-03T02:02:01;99787.75;;;3.56;59.81
77323;BME280;66384;51.052;9.850;2023-04-03T02:04:30;99784.98;;;3.55;59.69
77323;BME280;66384;51.052;9.850;2023-04-03T02:06:59;99787.23;;;3.53;59.90
77323;BME280;66384;51.052;9.850;2023-04-03T02:09:29;99792.76;;;3.52;59.91
77323;BME280;66384;51.052;9.850;2023-04-03T02:11:58;99792.80;;;3.50;59.77
77323;BME280;66384;51.052;9.850;2023-04-03T02:14:28;99796.71;;;3.48;59.98
77323;BME280;66384;51.052;9.850;2023-04-03T02:16:57;99796.36;;;3.46;59.87
77323;BME280;66384;51.052;9.850;2023-04-03T02:19:26;99798.41;;;3.43;59.57
77323;BME280;66384;51.052;9.850;2023-04-03T02:21:56;99804.16;;;3.40;59.79
77323;BME280;66384;51.052;9.850;2023-04-03T02:24:25;99801.75;;;3.35;59.61
77323;BME280;66384;51.052;9.850;2023-04-03T02:26:54;99800.13;;;3.32;59.89
77323;BME280;66384;51.052;9.850;2023-04-03T02:29:24;99798.45;;;3.30;59.93
77323;BME280;66384;51.052;9.850;2023-04-03T02:31:53;99796.73;;;3.27;59.85
77323;BME280;66384;51.052;9.850;2023-04-03T02:34:22;99797.95;;;3.23;60.09
77323;BME280;66384;51.052;9.850;2023-04-03T02:36:52;99800.46;;;3.17;59.95
77323;BME280;66384;51.052;9.850;2023-04-03T02:39:21;99805.34;;;3.14;60.27
77323;BME280;66384;51.052;9.850;2023-04-03T02:41:50;99810.52;;;3.15;60.54
77323;BME280;66384;51.052;9.850;2023-04-03T02:44:20;99804.58;;;3.15;60.52
77323;BME280;66384;51.052;9.850;2023-04-03T02:46:49;99806.41;;;3.15;60.61
77323;BME280;66384;51.052;9.850;2023-04-03T02:49:18;99810.78;;;3.17;60.44
77323;BME280;66384;51.052;9.850;2023-04-03T02:51:47;99810.42;;;3.14;60.38
77323;BME280;66384;51.052;9.850;2023-04-03T02:54:17;99810.64;;;3.10;60.46
77323;BME280;66384;51.052;9.850;2023-04-03T02:56:46;99805.65;;;3.09;60.60
77323;BME280;66384;51.052;9.850;2023-04-03T02:59:15;99802.04;;;3.09;60.42
77323;BME280;66384;51.052;9.850;2023-04-03T03:01:45;99803.20;;;3.08;60.47
77323;BME280;66384;51.052;9.850;2023-04-03T03:04:14;99806.49;;;3.07;60.80
77323;BME280;66384;51.052;9.850;2023-04-03T03:06:43;99802.04;;;3.04;60.58
77323;BME280;66384;51.052;9.850;2023-04-03T03:09:12;99798.14;;;3.04;60.45
77323;BME280;66384;51.052;9.850;2023-04-03T03:11:42;99800.17;;;3.02;60.47
77323;BME280;66384;51.052;9.850;2023-04-03T03:14:11;99795.60;;;2.98;60.33
77323;BME280;66384;51.052;9.850;2023-04-03T03:16:41;99796.66;;;2.91;60.58
77323;BME280;66384;51.052;9.850;2023-04-03T03:19:10;99793.92;;;2.86;60.51
77323;BME280;66384;51.052;9.850;2023-04-03T03:21:40;99791.19;;;2.82;60.52
77323;BME280;66384;51.052;9.850;2023-04-03T03:24:09;99799.80;;;2.79;60.70
77323;BME280;66384;51.052;9.850;2023-04-03T03:26:40;99805.04;;;2.76;60.91
77323;BME280;66384;51.052;9.850;2023-04-03T03:29:09;99808.96;;;2.71;60.76
77323;BME280;66384;51.052;9.850;2023-04-03T03:31:38;99808.15;;;2.67;61.06
77323;BME280;66384;51.052;9.850;2023-04-03T03:34:08;99811.69;;;2.65;60.91
77323;BME280;66384;51.052;9.850;2023-04-03T03:36:37;99808.99;;;2.61;60.98
77323;BME280;66384;51.052;9.850;2023-04-03T03:39:06;99809.84;;;2.56;60.77
77323;BME280;66384;51.052;9.850;2023-04-03T03:41:36;99808.30;;;2.52;60.91
77323;BME280;66384;51.052;9.850;2023-04-03T03:44:05;99804.52;;;2.44;60.94
77323;BME280;66384;51.052;9.850;2023-04-03T03:46:34;99804.17;;;2.37;61.25
77323;BME280;66384;51.052;9.850;2023-04-03T03:49:04;99805.29;;;2.32;61.43
77323;BME280;66384;51.052;9.850;2023-04-03T03:51:33;99805.94;;;2.27;61.17
77323;BME280;66384;51.052;9.850;2023-04-03T03:54:02;99806.73;;;2.22;61.39
77323;BME280;66384;51.052;9.850;2023-04-03T03:56:32;99806.72;;;2.18;61.77
77323;BME280;66384;51.052;9.850;2023-04-03T03:59:01;99808.35;;;2.14;61.49
77323;BME280;66384;51.052;9.850;2023-04-03T04:01:31;99812.06;;;2.12;61.58
77323;BME280;66384;51.052;9.850;2023-04-03T04:04:00;99811.48;;;2.07;61.58
77323;BME280;66384;51.052;9.850;2023-04-03T04:06:29;99812.22;;;2.03;61.76
77323;BME280;66384;51.052;9.850;2023-04-03T04:08:59;99813.88;;;2.00;61.77
77323;BME280;66384;51.052;9.850;2023-04-03T04:11:28;99815.17;;;1.95;61.98
77323;BME280;66384;51.052;9.850;2023-04-03T04:13:57;99818.11;;;1.89;61.85
77323;BME280;66384;51.052;9.850;2023-04-03T04:16:27;99822.70;;;1.81;61.68
77323;BME280;66384;51.052;9.850;2023-04-03T04:18:56;99824.11;;;1.73;61.96
77323;BME280;66384;51.052;9.850;2023-04-03T04:21:25;99828.17;;;1.68;62.02
77323;BME280;66384;51.052;9.850;2023-04-03T04:23:54;99833.16;;;1.63;61.76
77323;BME280;66384;51.052;9.850;2023-04-03T04:26:24;99833.05;;;1.62;62.68
77323;BME280;66384;51.052;9.850;2023-04-03T04:28:53;99835.81;;;1.64;62.60
77323;BME280;66384;51.052;9.850;2023-04-03T04:31:22;99839.22;;;1.67;62.68
77323;BME280;66384;51.052;9.850;2023-04-03T04:33:51;99845.01;;;1.69;62.62
77323;BME280;66384;51.052;9.850;2023-04-03T04:36:21;99843.02;;;1.72;62.60
77323;BME280;66384;51.052;9.850;2023-04-03T04:38:50;99848.92;;;1.75;62.64
77323;BME280;66384;51.052;9.850;2023-04-03T04:41:21;99845.22;;;1.78;62.60
77323;BME280;66384;51.052;9.850;2023-04-03T04:43:51;99852.64;;;1.81;62.40
77323;BME280;66384;51.052;9.850;2023-04-03T04:46:20;99856.23;;;1.80;62.18
77323;BME280;66384;51.052;9.850;2023-04-03T04:48:49;99860.36;;;1.78;61.94
77323;BME280;66384;51.052;9.850;2023-04-03T04:51:19;99857.77;;;1.74;62.35
77323;BME280;66384;51.052;9.850;2023-04-03T04:53:48;99860.48;;;1.69;62.33
77323;BME280;66384;51.052;9.850;2023-04-03T04:56:17;99860.83;;;1.67;61.98
77323;BME280;66384;51.052;9.850;2023-04-03T04:58:47;99863.13;;;1.67;62.44
77323;BME280;66384;51.052;9.850;2023-04-03T05:01:16;99862.03;;;1.65;62.49
77323;BME280;66384;51.052;9.850;2023-04-03T05:03:46;99863.55;;;1.65;62.39
77323;BME280;66384;51.052;9.850;2023-04-03T05:06:15;99864.10;;;1.64;62.12
77323;BME280;66384;51.052;9.850;2023-04-03T05:08:45;99864.33;;;1.63;62.50
77323;BME280;66384;51.052;9.850;2023-04-03T05:11:14;99858.00;;;1.64;62.49
77323;BME280;66384;51.052;9.850;2023-04-03T05:13:44;99866.51;;;1.66;62.55
77323;BME280;66384;51.052;9.850;2023-04-03T05:16:14;99862.64;;;1.67;62.24
77323;BME280;66384;51.052;9.850;2023-04-03T05:18:43;99863.02;;;1.67;62.43
77323;BME280;66384;51.052;9.850;2023-04-03T05:21:12;99866.10;;;1.72;62.44
77323;BME280;66384;51.052;9.850;2023-04-03T05:23:42;99867.42;;;1.75;62.08
77323;BME280;66384;51.052;9.850;2023-04-03T05:26:11;99867.33;;;1.77;62.11
77323;BME280;66384;51.052;9.850;2023-04-03T05:28:41;99872.69;;;1.75;62.52
77323;BME280;66384;51.052;9.850;2023-04-03T05:31:10;99871.96;;;1.73;62.16
77323;BME280;66384;51.052;9.850;2023-04-03T05:33:39;99877.32;;;1.72;62.64
77323;BME280;66384;51.052;9.850;2023-04-03T05:36:10;99879.02;;;1.74;62.54
77323;BME280;66384;51.052;9.850;2023-04-03T05:38:40;99882.85;;;1.71;62.36
77323;BME280;66384;51.052;9.850;2023-04-03T05:41:10;99880.56;;;1.72;62.71
77323;BME280;66384;51.052;9.850;2023-04-03T05:43:39;99885.97;;;1.72;62.39
77323;BME280;66384;51.052;9.850;2023-04-03T05:46:12;99890.08;;;1.72;62.25
77323;BME280;66384;51.052;9.850;2023-04-03T05:48:41;99893.90;;;1.74;62.17
77323;BME280;66384;51.052;9.850;2023-04-03T05:51:16;99893.97;;;1.77;62.35
77323;BME280;66384;51.052;9.850;2023-04-03T05:53:46;99900.91;;;1.81;62.10
77323;BME280;66384;51.052;9.850;2023-04-03T05:56:15;99902.55;;;1.87;62.07
77323;BME280;66384;51.052;9.850;2023-04-03T05:58:45;99896.06;;;1.88;62.01
77323;BME280;66384;51.052;9.850;2023-04-03T06:01:14;99895.66;;;1.88;62.01
77323;BME280;66384;51.052;9.850;2023-04-03T06:03:44;99902.02;;;1.87;61.80
77323;BME280;66384;51.052;9.850;2023-04-03T06:06:15;99903.30;;;1.88;62.14
77323;BME280;66384;51.052;9.850;2023-04-03T06:08:44;99901.52;;;1.93;61.97
77323;BME280;66384;51.052;9.850;2023-04-03T06:11:14;99900.74;;;1.98;61.60
77323;BME280;66384;51.052;9.850;2023-04-03T06:13:43;99900.02;;;1.98;61.42
77323;BME280;66384;51.052;9.850;2023-04-03T06:16:14;99902.81;;;1.98;61.41
77323;BME280;66384;51.052;9.850;2023-04-03T06:18:44;99908.71;;;1.98;61.23
77323;BME280;66384;51.052;9.850;2023-04-03T06:21:13;99911.54;;;1.97;61.74
77323;BME280;66384;51.052;9.850;2023-04-03T06:23:42;99911.56;;;1.96;61.25
77323;BME280;66384;51.052;9.850;2023-04-03T06:26:12;99912.38;;;1.91;61.37
77323;BME280;66384;51.052;9.850;2023-04-03T06:28:41;99915.58;;;1.88;60.86
77323;BME280;66384;51.052;9.850;2023-04-03T06:31:10;99916.03;;;1.88;61.29
77323;BME280;66384;51.052;9.850;2023-04-03T06:33:40;99918.71;;;1.88;61.38
77323;BME280;66384;51.052;9.850;2023-04-03T06:36:11;99922.44;;;1.87;61.21
77323;BME280;66384;51.052;9.850;2023-04-03T06:38:41;99922.84;;;1.83;60.69
77323;BME280;66384;51.052;9.850;2023-04-03T06:41:10;99928.77;;;1.81;60.72
77323;BME280;66384;51.052;9.850;2023-04-03T06:43:39;99931.34;;;1.79;61.27
77323;BME280;66384;51.052;9.850;2023-04-03T06:46:14;99935.52;;;1.83;61.18
77323;BME280;66384;51.052;9.850;2023-04-03T06:48:45;99936.33;;;1.87;61.27
77323;BME280;66384;51.052;9.850;2023-04-03T06:51:19;99941.36;;;1.89;61.38
77323;BME280;66384;51.052;9.850;2023-04-03T06:53:50;99943.97;;;1.95;61.35
77323;BME280;66384;51.052;9.850;2023-04-03T06:56:20;99946.16;;;2.04;61.29
77323;BME280;66384;51.052;9.850;2023-04-03T06:58:50;99952.77;;;2.10;60.61
77323;BME280;66384;51.052;9.850;2023-04-03T07:01:22;99960.44;;;2.15;60.59
77323;BME280;66384;51.052;9.850;2023-04-03T07:03:53;99962.55;;;2.18;60.79
77323;BME280;66384;51.052;9.850;2023-04-03T07:06:22;99968.07;;;2.21;60.65
77323;BME280;66384;51.052;9.850;2023-04-03T07:08:54;99972.21;;;2.26;60.71
77323;BME280;66384;51.052;9.850;2023-04-03T07:11:24;99974.05;;;2.35;60.52
77323;BME280;66384;51.052;9.850;2023-04-03T07:13:54;99975.34;;;2.40;60.59
77323;BME280;66384;51.052;9.850;2023-04-03T07:16:24;99978.34;;;2.48;60.87
77323;BME280;66384;51.052;9.850;2023-04-03T07:18:53;99979.20;;;2.53;60.01
77323;BME280;66384;51.052;9.850;2023-04-03T07:21:22;99982.69;;;2.54;59.33
77323;BME280;66384;51.052;9.850;2023-04-03T07:23:52;99984.60;;;2.54;59.42
77323;BME280;66384;51.052;9.850;2023-04-03T07:26:21;99985.28;;;2.54;59.35
77323;BME280;66384;51.052;9.850;2023-04-03T07:28:51;99984.63;;;2.55;59.34
77323;BME280;66384;51.052;9.850;2023-04-03T07:31:20;99983.68;;;2.55;59.13
77323;BME280;66384;51.052;9.850;2023-04-03T07:33:49;99994.86;;;2.55;59.02
77323;BME280;66384;51.052;9.850;2023-04-03T07:36:21;99994.36;;;2.57;59.10
77323;BME280;66384;51.052;9.850;2023-04-03T07:38:50;99991.15;;;2.58;59.15
77323;BME280;66384;51.052;9.850;2023-04-03T07:41:21;99992.38;;;2.58;58.78
77323;BME280;66384;51.052;9.850;2023-04-03T07:43:49;99996.45;;;2.58;58.17
77323;BME280;66384;51.052;9.850;2023-04-03T07:46:19;99998.44;;;2.57;58.29
77323;BME280;66384;51.052;9.850;2023-04-03T07:48:49;100003.54;;;2.56;58.34
77323;BME280;66384;51.052;9.850;2023-04-03T07:51:18;100004.36;;;2.59;57.99
77323;BME280;66384;51.052;9.850;2023-04-03T07:53:48;100006.98;;;2.66;58.05
77323;BME280;66384;51.052;9.850;2023-04-03T07:56:17;100007.10;;;2.70;58.19
77323;BME280;66384;51.052;9.850;2023-04-03T07:58:48;100008.33;;;2.71;57.31
77323;BME280;66384;51.052;9.850;2023-04-03T08:01:17;100012.42;;;2.69;57.28
77323;BME280;66384;51.052;9.850;2023-04-03T08:03:46;100009.55;;;2.67;57.25
77323;BME280;66384;51.052;9.850;2023-04-03T08:06:16;100014.41;;;2.66;56.98
77323;BME280;66384;51.052;9.850;2023-04-03T08:08:45;100014.25;;;2.70;57.28
77323;BME280;66384;51.052;9.850;2023-04-03T08:11:15;100014.95;;;2.73;57.04
77323;BME280;66384;51.052;9.850;2023-04-03T08:13:44;100016.38;;;2.76;57.19
77323;BME280;66384;51.052;9.850;2023-04-03T08:16:18;100018.80;;;2.81;56.58
77323;BME280;66384;51.052;9.850;2023-04-03T08:18:50;100016.20;;;2.87;55.90
77323;BME280;66384;51.052;9.850;2023-04-03T08:21:19;100023.08;;;2.92;55.22
77323;BME280;66384;51.052;9.850;2023-04-03T08:23:49;100016.63;;;2.97;55.12
77323;BME280;66384;51.052;9.850;2023-04-03T08:26:21;100020.21;;;3.02;55.00
77323;BME280;66384;51.052;9.850;2023-04-03T08:28:50;100021.49;;;3.09;55.22
77323;BME280;66384;51.052;9.850;2023-04-03T08:31:20;100017.77;;;3.18;54.32
77323;BME280;66384;51.052;9.850;2023-04-03T08:33:50;100016.09;;;3.26;53.31
77323;BME280;66384;51.052;9.850;2023-04-03T08:36:21;100020.66;;;3.32;53.75
77323;BME280;66384;51.052;9.850;2023-04-03T08:38:52;100018.98;;;3.39;53.30
77323;BME280;66384;51.052;9.850;2023-04-03T08:41:29;100016.27;;;3.46;52.94
77323;BME280;66384;51.052;9.850;2023-04-03T08:44:10;100017.79;;;3.52;53.27
77323;BME280;66384;51.052;9.850;2023-04-03T08:46:52;100017.02;;;3.62;52.83
77323;BME280;66384;51.052;9.850;2023-04-03T08:49:28;100014.14;;;3.70;52.92
77323;BME280;66384;51.052;9.850;2023-04-03T08:52:01;100012.45;;;3.79;52.37
77323;BME280;66384;51.052;9.850;2023-04-03T08:54:34;100011.98;;;3.86;51.20
77323;BME280;66384;51.052;9.850;2023-04-03T08:57:06;100007.25;;;3.94;51.65
77323;BME280;66384;51.052;9.850;2023-04-03T08:59:37;100005.86;;;4.00;51.18
77323;BME280;66384;51.052;9.850;2023-04-03T09:02:24;100003.05;;;4.06;50.99
77323;BME280;66384;51.052;9.850;2023-04-03T09:04:55;100004.73;;;4.13;50.58
77323;BME280;66384;51.052;9.850;2023-04-03T09:07:32;99998.55;;;4.22;51.15
77323;BME280;66384;51.052;9.850;2023-04-03T09:10:05;99999.40;;;4.36;50.47
77323;BME280;66384;51.052;9.850;2023-04-03T09:12:39;99998.39;;;4.48;50.04
77323;BME280;66384;51.052;9.850;2023-04-03T09:15:18;99996.79;;;4.59;50.51
77323;BME280;66384;51.052;9.850;2023-04-03T09:18:00;100000.15;;;4.71;50.33
77323;BME280;66384;51.052;9.850;2023-04-03T09:20:33;100010.92;;;4.73;49.95
77323;BME280;66384;51.052;9.850;2023-04-03T09:23:17;100015.11;;;4.70;49.90
77323;BME280;66384;51.052;9.850;2023-04-03T09:25:47;100018.07;;;4.64;49.71
77323;BME280;66384;51.052;9.850;2023-04-03T09:28:18;100014.99;;;4.59;49.89
77323;BME280;66384;51.052;9.850;2023-04-03T09:30:47;100011.70;;;4.53;49.38
77323;BME280;66384;51.052;9.850;2023-04-03T09:33:17;100012.11;;;4.45;48.85
77323;BME280;66384;51.052;9.850;2023-04-03T09:35:48;100010.91;;;4.35;48.73
77323;BME280;66384;51.052;9.850;2023-04-03T09:38:22;100010.94;;;4.30;49.07
77323;BME280;66384;51.052;9.850;2023-04-03T09:41:05;100011.16;;;4.31;49.15
77323;BME280;66384;51.052;9.850;2023-04-03T09:43:37;100010.40;;;4.32;49.12
77323;BME280;66384;51.052;9.850;2023-04-03T09:46:31;100008.50;;;4.35;48.20
77323;BME280;66384;51.052;9.850;2023-04-03T09:49:02;100008.27;;;4.36;48.87
77323;BME280;66384;51.052;9.850;2023-04-03T09:51:33;100005.43;;;4.44;48.78
77323;BME280;66384;51.052;9.850;2023-04-03T09:54:26;100004.86;;;4.53;48.65
77323;BME280;66384;51.052;9.850;2023-04-03T09:57:04;100007.65;;;4.59;48.32
77323;BME280;66384;51.052;9.850;2023-04-03T09:59:35;100007.52;;;4.59;48.36
77323;BME280;66384;51.052;9.850;2023-04-03T10:02:34;100007.65;;;4.64;48.65
77323;BME280;66384;51.052;9.850;2023-04-03T10:05:23;100009.35;;;4.64;47.87
77323;BME280;66384;51.052;9.850;2023-04-03T10:08:09;100004.20;;;4.61;48.15
77323;BME280;66384;51.052;9.850;2023-04-03T10:10:39;100003.03;;;4.59;48.05
77323;BME280;66384;51.052;9.850;2023-04-03T10:13:13;99999.06;;;4.52;47.95
77323;BME280;66384;51.052;9.850;2023-04-03T10:15:46;99997.69;;;4.48;47.84
77323;BME280;66384;51.052;9.850;2023-04-03T10:18:31;99996.48;;;4.43;47.93
77323;BME280;66384;51.052;9.850;2023-04-03T10:21:06;99994.30;;;4.39;47.61
77323;BME280;66384;51.052;9.850;2023-04-03T10:23:44;99991.48;;;4.37;47.70
77323;BME280;66384;51.052;9.850;2023-04-03T10:26:20;99991.08;;;4.41;48.22
77323;BME280;66384;51.052;9.850;2023-04-03T10:29:00;99991.77;;;4.46;48.09
77323;BME280;66384;51.052;9.850;2023-04-03T10:31:40;99992.22;;;4.52;47.54
77323;BME280;66384;51.052;9.850;2023-04-03T10:34:18;99987.30;;;4.60;47.08
77323;BME280;66384;51.052;9.850;2023-04-03T10:36:55;99989.85;;;4.67;46.64
77323;BME280;66384;51.052;9.850;2023-04-03T10:39:32;99991.50;;;4.71;46.32
77323;BME280;66384;51.052;9.850;2023-04-03T10:42:09;99989.66;;;4.76;46.38
77323;BME280;66384;51.052;9.850;2023-04-03T10:44:56;99990.44;;;4.80;46.61
77323;BME280;66384;51.052;9.850;2023-04-03T10:47:36;99986.80;;;4.85;46.89
77323;BME280;66384;51.052;9.850;2023-04-03T10:50:23;99987.39;;;4.93;47.06
77323;BME280;66384;51.052;9.850;2023-04-03T10:53:00;99981.51;;;4.99;46.64
77323;BME280;66384;51.052;9.850;2023-04-03T10:55:38;99976.45;;;5.05;46.96
77323;BME280;66384;51.052;9.850;2023-04-03T10:58:18;99974.73;;;5.10;46.63
77323;BME280;66384;51.052;9.850;2023-04-03T11:00:52;99967.04;;;5.19;46.87
77323;BME280;66384;51.052;9.850;2023-04-03T11:03:31;99968.67;;;5.29;47.65
77323;BME280;66384;51.052;9.850;2023-04-03T11:06:07;99964.81;;;5.35;46.80
77323;BME280;66384;51.052;9.850;2023-04-03T11:08:44;99963.86;;;5.36;46.81
77323;BME280;66384;51.052;9.850;2023-04-03T11:11:19;99958.52;;;5.42;46.77
77323;BME280;66384;51.052;9.850;2023-04-03T11:13:53;99955.81;;;5.56;46.61
77323;BME280;66384;51.052;9.850;2023-04-03T11:16:26;99948.31;;;5.66;46.27
77323;BME280;66384;51.052;9.850;2023-04-03T11:19:01;99952.31;;;5.73;45.81
77323;BME280;66384;51.052;9.850;2023-04-03T11:21:35;99947.88;;;5.73;45.32
77323;BME280;66384;51.052;9.850;2023-04-03T11:24:15;99944.11;;;5.72;45.69
77323;BME280;66384;51.052;9.850;2023-04-03T11:26:46;99935.06;;;5.78;45.43
77323;BME280;66384;51.052;9.850;2023-04-03T11:29:22;99937.28;;;5.85;44.81
77323;BME280;66384;51.052;9.850;2023-04-03T11:32:07;99931.07;;;5.92;44.54
77323;BME280;66384;51.052;9.850;2023-04-03T11:34:41;99930.35;;;6.02;45.29
77323;BME280;66384;51.052;9.850;2023-04-03T11:37:17;99930.48;;;6.15;44.67
77323;BME280;66384;51.052;9.850;2023-04-03T11:39:56;99928.63;;;6.26;44.45
77323;BME280;66384;51.052;9.850;2023-04-03T11:42:32;99923.69;;;6.37;44.25
77323;BME280;66384;51.052;9.850;2023-04-03T11:45:25;99919.59;;;6.48;43.46
77323;BME280;66384;51.052;9.850;2023-04-03T11:47:59;99918.55;;;6.62;43.74
77323;BME280;66384;51.052;9.850;2023-04-03T11:50:43;99927.08;;;6.73;44.33
77323;BME280;66384;51.052;9.850;2023-04-03T11:53:34;99918.79;;;6.82;44.35
77323;BME280;66384;51.052;9.850;2023-04-03T11:56:26;99920.75;;;6.87;44.11
77323;BME280;66384;51.052;9.850;2023-04-03T11:59:24;99921.70;;;6.86;43.92
77323;BME280;66384;51.052;9.850;2023-04-03T12:01:55;99927.48;;;6.77;43.27
77323;BME280;66384;51.052;9.850;2023-04-03T12:04:27;99921.14;;;6.71;43.54
77323;BME280;66384;51.052;9.850;2023-04-03T12:07:13;99917.08;;;6.69;44.01
77323;BME280;66384;51.052;9.850;2023-04-03T12:10:20;99912.65;;;6.63;43.63
77323;BME280;66384;51.052;9.850;2023-04-03T12:13:12;99915.11;;;6.56;44.11
77323;BME280;66384;51.052;9.850;2023-04-03T12:15:50;99909.88;;;6.49;42.97
77323;BME280;66384;51.052;9.850;2023-04-03T12:19:01;99914.08;;;6.42;43.38
77323;BME280;66384;51.052;9.850;2023-04-03T12:22:09;99911.76;;;6.37;43.77
77323;BME280;66384;51.052;9.850;2023-04-03T12:24:39;99909.88;;;6.37;43.76
77323;BME280;66384;51.052;9.850;2023-04-03T12:27:32;99897.70;;;6.36;43.53
77323;BME280;66384;51.052;9.850;2023-04-03T12:30:16;99888.45;;;6.39;42.68
77323;BME280;66384;51.052;9.850;2023-04-03T12:33:09;99893.18;;;6.44;41.99
77323;BME280;66384;51.052;9.850;2023-04-03T12:35:54;99887.05;;;6.50;42.58
77323;BME280;66384;51.052;9.850;2023-04-03T12:38:52;99881.83;;;6.65;42.59
77323;BME280;66384;51.052;9.850;2023-04-03T12:41:35;99879.89;;;6.78;42.66
77323;BME280;66384;51.052;9.850;2023-04-03T12:44:20;99881.23;;;6.95;41.84
77323;BME280;66384;51.052;9.850;2023-04-03T12:46:54;99875.91;;;7.12;41.60
77323;BME280;66384;51.052;9.850;2023-04-03T12:49:33;99871.89;;;7.25;40.77
77323;BME280;66384;51.052;9.850;2023-04-03T12:52:04;99864.46;;;7.42;41.21
77323;BME280;66384;51.052;9.850;2023-04-03T12:54:35;99857.96;;;7.60;41.28
77323;BME280;66384;51.052;9.850;2023-04-03T12:57:12;99858.24;;;7.80;41.48
77323;BME280;66384;51.052;9.850;2023-04-03T12:59:46;99855.96;;;7.95;41.50
77323;BME280;66384;51.052;9.850;2023-04-03T13:02:32;99861.48;;;7.98;40.82
77323;BME280;66384;51.052;9.850;2023-04-03T13:05:14;99861.60;;;7.94;41.75
77323;BME280;66384;51.052;9.850;2023-04-03T13:07:45;99866.62;;;7.92;41.94
77323;BME280;66384;51.052;9.850;2023-04-03T13:10:18;99869.60;;;7.87;41.77
77323;BME280;66384;51.052;9.850;2023-04-03T13:12:50;99859.75;;;7.80;41.06
77323;BME280;66384;51.052;9.850;2023-04-03T13:15:22;99859.86;;;7.69;41.48
77323;BME280;66384;51.052;9.850;2023-04-03T13:17:53;99851.59;;;7.60;41.46
77323;BME280;66384;51.052;9.850;2023-04-03T13:20:26;99852.70;;;7.49;41.28
77323;BME280;66384;51.052;9.850;2023-04-03T13:22:58;99851.05;;;7.41;41.33
77323;BME280;66384;51.052;9.850;2023-04-03T13:25:31;99845.20;;;7.35;41.15
77323;BME280;66384;51.052;9.850;2023-04-03T13:28:04;99841.70;;;7.39;41.90
77323;BME280;66384;51.052;9.850;2023-04-03T13:30:35;99840.80;;;7.41;41.84
77323;BME280;66384;51.052;9.850;2023-04-03T13:33:22;99843.13;;;7.37;41.82
77323;BME280;66384;51.052;9.850;2023-04-03T13:35:58;99842.29;;;7.25;41.90
77323;BME280;66384;51.052;9.850;2023-04-03T13:38:28;99842.48;;;7.14;41.81
77323;BME280;66384;51.052;9.850;2023-04-03T13:41:01;99846.20;;;7.01;42.10